Strona główna
METAR-TAF:

METAR-TAF

Lotnisko :

RAF Fairford

Fairford, Anglia

Szerokość geograficzna: 51-41N, Długość geograficzna: 001-47W, wysokość: 87 m

Aktualna obserwacja pogody

Raport powstał 28 minut temu, godzina 19:56 UTC
Cisza
Temperatura -1°C
Wilgotność 100%
Ciśnienie 1048 hPa
Widzialność 10 km lub więcej
Zachmurzenie całkowite na wysokości 13000 ft

METAR: EGVA 191956Z AUTO 00000KT 9999 OVC130 M01/M01 A3095 RMK AO2 SLP491 T10081015 $

czas: 20:24 (20:24 UTC)


TAF: brakujący

Obserwacja i prognoza pogody dla ponad 4000 lotnisk (raport METAR i TAF).

Dostępne stacje oznaczono żółtymi i czerwonymi punktami na mapie.

Najedź kursorem aby zobaczyć nazwę stacji.

Kliknij aby zobaczyć obserwacje i prognozy pogody.

Aby zmienić mapę: kliknij na zielony przycisk z czarnym krzyżykiem, aby powiększyć; na zielony przycisk z myślnikiem, aby pomniejszyć; na zielone strzałki, aby przejść do map sąsiednich.


METAR-TAF: